^^
Station Historical Data
Daily Summary for February 14, 2018 Units:  Metric    English   Both
« Previous Day
Next Day »
Daily Weekly Monthly Yearly Custom
  High: Low: Average:
Temperature: 18.3 °C -1 °C 8.6 °C
Dew Point: -1.9 °C -8.1 °C -5.5 °C
Humidity: 68% 17% 40%
Wind Speed: 14.5km/h 0km/h 2.6km/h
Wind Gust: 40.2km/h - -
Wind- - SW
Pressure: 1023.9 hPa 1010 hPa -
Precipitation: 0 mm    
Historical Graphs
 
 
Tabular Data for February 14, 2018
Time Temperature Dew Point Pressure Wind Wind Speed Wind Gust Humidity Rainfall Rate (Hourly) solar Conditions
00:00 0.3 °C -5.9 °C 1023.9 hPa Calm   1.6 km/h 63% 0 mm 0.0 W/m2 CLR
00:10 0.5 °C -5.9 °C 1023.9 hPa Calm     62% 0 mm 0.0 W/m2 CLR
00:15 0.2 °C -6 °C 1023.6 hPa ESE 1.6 km/h 4.8 km/h 63% 0 mm 0.0 W/m2 CLR
00:20 0.1 °C -5.9 °C 1023.6 hPa Calm   3.2 km/h 64% 0 mm 0.0 W/m2 CLR
00:30 1.4 °C -5.3 °C 1023.2 hPa NNE 3.2 km/h 4.8 km/h 61% 0 mm 0.0 W/m2 CLR
00:35 3.2 °C -5.5 °C 1023.2 hPa WNW 1.6 km/h 6.4 km/h 53% 0 mm 0.0 W/m2 CLR
00:40 4.1 °C -5.4 °C 1023.2 hPa West 1.6 km/h 4.8 km/h 50% 0 mm 0.0 W/m2 CLR
00:45 4.7 °C -5.4 °C 1023.2 hPa Calm   3.2 km/h 48% 0 mm 0.0 W/m2 CLR
00:50 4.8 °C -5.6 °C 1023.2 hPa WSW 1.6 km/h 3.2 km/h 47% 0 mm 0.0 W/m2 CLR
00:55 4.8 °C -5.6 °C 1023.2 hPa Calm   3.2 km/h 47% 0 mm 0.0 W/m2 CLR
01:00 5.6 °C -4.8 °C 1022.9 hPa WSW 1.6 km/h 6.4 km/h 47% 0 mm 0.0 W/m2 CLR
01:10 6.2 °C -4.6 °C 1022.6 hPa WSW 1.6 km/h 12.9 km/h 46% 0 mm 0.0 W/m2 CLR
01:15 6.7 °C -4.4 °C 1022.2 hPa West 8 km/h 14.5 km/h 45% 0 mm 0.0 W/m2 CLR
01:20 7.2 °C -4.3 °C 1022.2 hPa West 4.8 km/h 12.9 km/h 44% 0 mm 0.0 W/m2 CLR
01:25 7.4 °C -4.4 °C 1022.2 hPa WSW 3.2 km/h 16.1 km/h 43% 0 mm 0.0 W/m2 CLR
01:30 7.6 °C -4.9 °C 1021.9 hPa WSW 4.8 km/h 14.5 km/h 41% 0 mm 0.0 W/m2 CLR
01:35 7.6 °C -4.8 °C 1021.9 hPa WSW 3.2 km/h 14.5 km/h 41% 0 mm 0.0 W/m2 CLR
01:45 7.7 °C -4.8 °C 1021.6 hPa WSW 1.6 km/h 9.7 km/h 41% 0 mm 0.0 W/m2 CLR
01:50 7.7 °C -5.1 °C 1021.9 hPa WNW 4.8 km/h 19.3 km/h 40% 0 mm 0.0 W/m2 CLR
01:55 7.8 °C -5 °C 1021.6 hPa WNW 3.2 km/h 9.7 km/h 40% 0 mm 0.0 W/m2 CLR
02:00 7.8 °C -5 °C 1021.6 hPa WSW 3.2 km/h 8 km/h 40% 0 mm 0.0 W/m2 CLR
02:10 6.8 °C -5.5 °C 1021.6 hPa WSW 3.2 km/h 14.5 km/h 41% 0 mm 0.0 W/m2 CLR
02:20 5.8 °C -5.9 °C 1021.6 hPa Calm   4.8 km/h 43% 0 mm 0.0 W/m2 CLR
02:25 5 °C -5.9 °C 1021.2 hPa Calm   3.2 km/h 45% 0 mm 0.0 W/m2 CLR
02:30 4.4 °C -5.9 °C 1020.9 hPa Calm   3.2 km/h 47% 0 mm 0.0 W/m2 CLR
02:35 3.8 °C -6 °C 1020.9 hPa Calm   1.6 km/h 49% 0 mm 0.0 W/m2 CLR
02:45 3.7 °C -6.4 °C 1020.9 hPa Calm     48% 0 mm 0.0 W/m2 CLR
02:50 3.4 °C -6.3 °C 1020.9 hPa NW 1.6 km/h 3.2 km/h 49% 0 mm 0.0 W/m2 CLR
02:55 3 °C -6.2 °C 1020.9 hPa Calm   3.2 km/h 51% 0 mm 0.0 W/m2 CLR
03:00 2.9 °C -6.3 °C 1020.5 hPa Calm   1.6 km/h 51% 0 mm 0.0 W/m2 CLR
03:10 1.9 °C -6.4 °C 1020.5 hPa NW 1.6 km/h 3.2 km/h 54% 0 mm 0.0 W/m2 CLR
03:20 2.9 °C -6.3 °C 1020.2 hPa Calm   6.4 km/h 51% 0 mm 0.0 W/m2 CLR
03:24 4.2 °C -6.4 °C 1020.2 hPa Calm   4.8 km/h 46% 0 mm 0.0 W/m2 CLR
03:30 4.6 °C -6.1 °C 1019.9 hPa Calm   3.2 km/h 46% 0 mm 0.0 W/m2 CLR
03:34 4.3 °C -6.1 °C 1019.9 hPa SE 1.6 km/h 4.8 km/h 47% 0 mm 0.0 W/m2 CLR
03:40 4.3 °C -6.3 °C 1019.9 hPa Calm   3.2 km/h 46% 0 mm 0.0 W/m2 CLR
03:45 3.7 °C -6.3 °C 1019.9 hPa Calm   3.2 km/h 48% 0 mm 0.0 W/m2 CLR
03:50 3.3 °C -6.4 °C 1019.9 hPa Calm   1.6 km/h 49% 0 mm 0.0 W/m2 CLR
03:55 2.7 °C -6.7 °C 1019.9 hPa Calm     50% 0 mm 0.0 W/m2 CLR
04:00 2.1 °C -6.6 °C 1019.9 hPa Calm   1.6 km/h 53% 0 mm 0.0 W/m2 CLR
04:10 1.5 °C -6.6 °C 1019.9 hPa South 1.6 km/h 3.2 km/h 55% 0 mm 0.0 W/m2 CLR
04:15 1.9 °C -6.4 °C 1019.9 hPa Calm   3.2 km/h 54% 0 mm 0.0 W/m2 CLR
04:20 2.1 °C -6.5 °C 1019.9 hPa South 1.6 km/h 6.4 km/h 53% 0 mm 0.0 W/m2 CLR
04:25 1.7 °C -6.4 °C 1019.9 hPa Calm   1.6 km/h 55% 0 mm 0.0 W/m2 CLR
04:30 1.4 °C -6.4 °C 1019.9 hPa Calm   1.6 km/h 56% 0 mm 0.0 W/m2 CLR
04:35 1.2 °C -6.4 °C 1019.9 hPa Calm   1.6 km/h 57% 0 mm 0.0 W/m2 CLR
04:40 1.1 °C -6.3 °C 1019.9 hPa Calm   1.6 km/h 58% 0 mm 0.0 W/m2 CLR
04:45 0.8 °C -6.3 °C 1019.9 hPa Calm   1.6 km/h 59% 0 mm 0.0 W/m2 CLR
04:50 0.5 °C -6.4 °C 1019.5 hPa Calm   3.2 km/h 60% 0 mm 0.0 W/m2 CLR
04:59 0 °C -6.4 °C 1019.5 hPa Calm   1.6 km/h 62% 0 mm 0.0 W/m2 CLR
05:10 -0.4 °C -6.6 °C 1019.5 hPa Calm   1.6 km/h 63% 0 mm 0.0 W/m2 CLR
05:20 0.1 °C -6.4 °C 1019.5 hPa Calm     62% 0 mm 0.0 W/m2 CLR
05:25 0 °C -6.4 °C 1019.2 hPa Calm     62% 0 mm 0.0 W/m2 CLR
05:30 -0.2 °C -6.6 °C 1019.2 hPa Calm     62% 0 mm 0.0 W/m2 CLR
05:34 0.1 °C -6.4 °C 1019.2 hPa Calm   1.6 km/h 62% 0 mm 0.0 W/m2 CLR
05:40 -0.1 °C -6.5 °C 1019.2 hPa Calm   1.6 km/h 62% 0 mm 0.0 W/m2 CLR
05:45 -0.2 °C -6.6 °C 1019.2 hPa Calm   1.6 km/h 62% 0 mm 0.0 W/m2 CLR
05:50 -0.1 °C -6.5 °C 1019.2 hPa Calm   1.6 km/h 62% 0 mm 0.0 W/m2 CLR
05:55 0.2 °C -6.4 °C 1019.2 hPa Calm   1.6 km/h 61% 0 mm 0.0 W/m2 FEW
06:00 0.2 °C -6.4 °C 1018.8 hPa Calm   1.6 km/h 61% 0 mm 0.0 W/m2 FEW
06:10 -0.4 °C -6.6 °C 1018.8 hPa Calm   1.6 km/h 63% 0 mm 0.0 W/m2 CLR
06:15 -0.5 °C -6.7 °C 1018.8 hPa Calm   1.6 km/h 63% 0 mm 0.0 W/m2 CLR
06:20 -0.6 °C -6.6 °C 1018.5 hPa Calm   1.6 km/h 64% 0 mm 0.0 W/m2 CLR
06:25 -0.6 °C -6.3 °C 1018.5 hPa Calm   3.2 km/h 65% 0 mm 0.0 W/m2 CLR
06:30 -0.7 °C -6.4 °C 1018.5 hPa Calm   1.6 km/h 65% 0 mm 0.0 W/m2 CLR
06:40 -0.7 °C -6.3 °C 1018.5 hPa Calm   1.6 km/h 66% 0 mm 0.0 W/m2 CLR
06:45 -0.5 °C -6.3 °C 1018.2 hPa Calm   3.2 km/h 65% 0 mm 0.0 W/m2 CLR
06:50 -0.7 °C -6.4 °C 1018.2 hPa Calm   3.2 km/h 65% 0 mm 0.0 W/m2 CLR
06:55 -0.9 °C -6.5 °C 1018.2 hPa Calm   1.6 km/h 66% 0 mm 0.0 W/m2 CLR
07:00 -1 °C -6.3 °C 1018.2 hPa Calm   1.6 km/h 67% 0 mm 0.0 W/m2 CLR
07:10 -0.9 °C -6.1 °C 1017.8 hPa ESE 1.6 km/h 8 km/h 68% 0 mm 5.0 W/m2 FEW
07:15 -0.5 °C -6.1 °C 1018.2 hPa Calm   3.2 km/h 66% 0 mm 5.0 W/m2 FEW
07:20 -0.2 °C -6 °C 1018.2 hPa ENE 1.6 km/h 4.8 km/h 65% 0 mm 7.0 W/m2 FEW
07:25 0.3 °C -5.9 °C 1018.2 hPa Calm   3.2 km/h 63% 0 mm 7.0 W/m2 FEW
07:30 0.2 °C -6.1 °C 1018.2 hPa Calm   1.6 km/h 63% 0 mm 9.0 W/m2 FEW
07:35 -0.2 °C -6.2 °C 1018.2 hPa Calm   1.6 km/h 64% 0 mm 11.0 W/m2 FEW
07:40 -0.1 °C -6.1 °C 1017.8 hPa Calm   1.6 km/h 64% 0 mm 11.0 W/m2 FEW
07:45 0 °C -6 °C 1018.2 hPa North 1.6 km/h 4.8 km/h 64% 0 mm 11.0 W/m2 FEW
07:50 0.3 °C -5.7 °C 1018.2 hPa North 1.6 km/h 3.2 km/h 64% 0 mm 12.0 W/m2 FEW
07:55 0.6 °C -5.7 °C 1017.8 hPa NNW 3.2 km/h 6.4 km/h 63% 0 mm 16.0 W/m2 BKN
07:59 1.4 °C -5.3 °C 1017.8 hPa Calm   4.8 km/h 61% 0 mm 16.0 W/m2 BKN
08:10 3.5 °C -5.4 °C 1017.8 hPa Calm   6.4 km/h 52% 0 mm 28.0 W/m2 BKN
08:15 3.8 °C -5.1 °C 1017.8 hPa Calm   9.7 km/h 52% 0 mm 46.0 W/m2 BKN
08:20 4.2 °C -5.3 °C 1017.8 hPa SSE 1.6 km/h 3.2 km/h 50% 0 mm 60.0 W/m2 BKN
08:25 4.1 °C -5.2 °C 1017.8 hPa Calm   3.2 km/h 51% 0 mm 42.0 W/m2 BKN
08:30 4.5 °C -5.3 °C 1017.5 hPa SSE 3.2 km/h 4.8 km/h 49% 0 mm 107.0 W/m2 BKN
08:35 5.8 °C -4.6 °C 1017.5 hPa Calm   3.2 km/h 47% 0 mm 153.0 W/m2 BKN
08:40 6.3 °C -4.5 °C 1017.5 hPa Calm   6.4 km/h 46% 0 mm 86.0 W/m2 BKN
08:45 6.6 °C -4 °C 1017.2 hPa ENE 3.2 km/h 6.4 km/h 47% 0 mm 134.0 W/m2 BKN
08:50 7.4 °C -4.1 °C 1017.2 hPa ENE 1.6 km/h 4.8 km/h 44% 0 mm 63.0 W/m2 BKN
08:55 8.6 °C -4 °C 1017.2 hPa ENE 1.6 km/h 4.8 km/h 41% 0 mm 98.0 W/m2 BKN
09:00 9.2 °C -3.4 °C 1016.8 hPa NE 3.2 km/h 8 km/h 41% 0 mm 214.0 W/m2 BKN
09:10 10.2 °C -2.8 °C 1016.8 hPa NE 3.2 km/h 8 km/h 40% 0 mm 139.0 W/m2 BKN
09:15 10.7 °C -3.1 °C 1016.5 hPa ENE 1.6 km/h 4.8 km/h 38% 0 mm 174.0 W/m2 BKN
09:20 11.2 °C -1.9 °C 1016.5 hPa ENE 3.2 km/h 6.4 km/h 40% 0 mm 139.0 W/m2 BKN
09:24 11.6 °C -2.6 °C 1016.5 hPa ENE 1.6 km/h 6.4 km/h 37% 0 mm 176.0 W/m2 BKN
09:30 12.1 °C -2.2 °C 1016.5 hPa East 1.6 km/h 3.2 km/h 37% 0 mm 135.0 W/m2 BKN
09:35 12 °C -2.3 °C 1016.5 hPa ENE 3.2 km/h 8 km/h 37% 0 mm 216.0 W/m2 BKN
09:40 12 °C -2.6 °C 1016.5 hPa NE 4.8 km/h 8 km/h 36% 0 mm 264.0 W/m2 BKN
09:45 12.2 °C -2.4 °C 1016.5 hPa ENE 1.6 km/h 8 km/h 36% 0 mm 237.0 W/m2 BKN
09:50 12.8 °C -2.3 °C 1016.1 hPa ENE 3.2 km/h 6.4 km/h 35% 0 mm 301.0 W/m2 BKN
09:55 13.1 °C -3.2 °C 1016.1 hPa ESE 1.6 km/h 8 km/h 32% 0 mm 218.0 W/m2 BKN
10:00 13.2 °C -2.3 °C 1016.1 hPa ESE 1.6 km/h 4.8 km/h 34% 0 mm 230.0 W/m2 BKN
10:10 13.3 °C -2.3 °C 1015.8 hPa NE 4.8 km/h 9.7 km/h 34% 0 mm 308.0 W/m2 BKN
10:15 13.4 °C -2.6 °C 1015.8 hPa NE 4.8 km/h 9.7 km/h 33% 0 mm 151.0 W/m2 BKN
10:20 13.2 °C -2.8 °C 1015.8 hPa NE 8 km/h 12.9 km/h 33% 0 mm 156.0 W/m2 BKN
10:25 13.3 °C -2.6 °C 1015.8 hPa NE 4.8 km/h 9.7 km/h 33% 0 mm 211.0 W/m2 BKN
10:30 13.4 °C -2.5 °C 1015.5 hPa NE 4.8 km/h 11.3 km/h 33% 0 mm 218.0 W/m2 BKN
10:35 13.7 °C -2.3 °C 1015.5 hPa NE 3.2 km/h 8 km/h 33% 0 mm 195.0 W/m2 BKN
10:40 13.8 °C -2.7 °C 1015.5 hPa ENE 1.6 km/h 4.8 km/h 32% 0 mm 209.0 W/m2 BKN
10:45 13.8 °C -3.1 °C 1015.1 hPa East 1.6 km/h 6.4 km/h 31% 0 mm 165.0 W/m2 BKN
10:50 13.8 °C -2.7 °C 1015.5 hPa Calm   4.8 km/h 32% 0 mm 171.0 W/m2 BKN
11:00 14.2 °C -3.6 °C 1015.1 hPa SE 1.6 km/h 6.4 km/h 29% 0 mm 234.0 W/m2 BKN
11:10 14.8 °C -4.1 °C 1015.1 hPa SSW 3.2 km/h 14.5 km/h 27% 0 mm 373.0 W/m2 BKN
11:15 15.6 °C -4.4 °C 1014.8 hPa SSW 3.2 km/h 16.1 km/h 25% 0 mm 392.0 W/m2 BKN
11:20 16.1 °C -4.6 °C 1014.8 hPa SSW 3.2 km/h 12.9 km/h 24% 0 mm 541.0 W/m2 BKN
11:25 16.7 °C -4.6 °C 1014.4 hPa SW 9.7 km/h 16.1 km/h 23% 0 mm 434.0 W/m2 BKN
11:30 16.9 °C -3.8 °C 1014.4 hPa SSW 1.6 km/h 14.5 km/h 24% 0 mm 462.0 W/m2 BKN
11:35 16.9 °C -4.4 °C 1014.4 hPa SW 8 km/h 19.3 km/h 23% 0 mm 223.0 W/m2 BKN
11:40 16.9 °C -4.3 °C 1014.1 hPa SW 9.7 km/h 20.9 km/h 23% 0 mm 308.0 W/m2 BKN
11:45 17.1 °C -4.8 °C 1014.1 hPa SSW 9.7 km/h 19.3 km/h 22% 0 mm 501.0 W/m2 BKN
11:50 17.1 °C -4.2 °C 1014.1 hPa WSW 4.8 km/h 22.5 km/h 23% 0 mm 313.0 W/m2 BKN
11:54 17.1 °C -4.8 °C 1014.1 hPa West 9.7 km/h 20.9 km/h 22% 0 mm 527.0 W/m2 BKN
12:00 17.1 °C -4.8 °C 1014.1 hPa WSW 9.7 km/h 20.9 km/h 22% 0 mm 366.0 W/m2 BKN
12:09 17.2 °C -4.8 °C 1013.8 hPa WSW 8 km/h 19.3 km/h 22% 0 mm 174.0 W/m2 BKN
12:15 17.2 °C -5.3 °C 1013.4 hPa WSW 8 km/h 20.9 km/h 21% 0 mm 142.0 W/m2 BKN
12:20 17.3 °C -5.3 °C 1013.4 hPa West 9.7 km/h 19.3 km/h 21% 0 mm 207.0 W/m2 BKN
12:30 17.2 °C -4.8 °C 1013.1 hPa SSW 12.9 km/h 27.4 km/h 22% 0 mm 450.0 W/m2 BKN
12:35 17.2 °C -4.7 °C 1013.1 hPa SW 8 km/h 27.4 km/h 22% 0 mm 406.0 W/m2 BKN
12:40 17.5 °C -5.1 °C 1013.1 hPa SW 9.7 km/h 29 km/h 21% 0 mm 503.0 W/m2 BKN
12:45 17.6 °C -5.1 °C 1012.8 hPa SW 9.7 km/h 32.2 km/h 21% 0 mm 578.0 W/m2 BKN
12:49 17.7 °C -4.9 °C 1012.8 hPa WSW 14.5 km/h 40.2 km/h 21% 0 mm 599.0 W/m2 BKN
12:54 17.7 °C -4.9 °C 1012.8 hPa SW 9.7 km/h 29 km/h 21% 0 mm 585.0 W/m2 BKN
13:00 17.9 °C -4.8 °C 1012.4 hPa WSW 9.7 km/h 32.2 km/h 21% 0 mm 679.0 W/m2 BKN
13:10 18.3 °C -5.1 °C 1012.4 hPa SW 11.3 km/h 33.8 km/h 20% 0 mm 631.0 W/m2 BKN
13:15 18 °C -4.7 °C 1012.1 hPa SSW 11.3 km/h 33.8 km/h 21% 0 mm 626.0 W/m2 BKN
13:20 17.9 °C -5.4 °C 1012.1 hPa SW 14.5 km/h 25.7 km/h 20% 0 mm 621.0 W/m2 BKN
13:25 18.1 °C -4.6 °C 1011.7 hPa WSW 8 km/h 19.3 km/h 21% 0 mm 613.0 W/m2 BKN
13:34 18.1 °C -5.3 °C 1011.4 hPa WSW 9.7 km/h 38.6 km/h 20% 0 mm 408.0 W/m2 BKN
13:40 17.5 °C -5.8 °C 1011.4 hPa WSW 8 km/h 20.9 km/h 20% 0 mm 144.0 W/m2 BKN
13:45 17.1 °C -5.4 °C 1011.4 hPa WSW 4.8 km/h 20.9 km/h 21% 0 mm 380.0 W/m2 BKN
13:50 17.8 °C -4.8 °C 1011.4 hPa WSW 12.9 km/h 20.9 km/h 21% 0 mm 545.0 W/m2 BKN
14:10 17.9 °C -6.1 °C 1011.1 hPa West 3.2 km/h 27.4 km/h 19% 0 mm 427.0 W/m2 BKN
14:15 17.9 °C -6.1 °C 1011.1 hPa West 9.7 km/h 20.9 km/h 19% 0 mm 155.0 W/m2 BKN
14:20 17.9 °C -6.1 °C 1010.7 hPa West 8 km/h 19.3 km/h 19% 0 mm 193.0 W/m2 BKN
14:25 18.1 °C -6.6 °C 1011.1 hPa West 9.7 km/h 16.1 km/h 18% 0 mm 86.0 W/m2 BKN
14:30 17.9 °C -6.8 °C 1010.7 hPa West 8 km/h 19.3 km/h 18% 0 mm 62.0 W/m2 BKN
14:35 17.9 °C -6.8 °C 1010.7 hPa West 9.7 km/h 16.1 km/h 18% 0 mm 299.0 W/m2 BKN
14:40 17.8 °C -6.8 °C 1010.7 hPa WSW 8 km/h 20.9 km/h 18% 0 mm 188.0 W/m2 BKN
14:45 17.8 °C -7.6 °C 1010.7 hPa WSW 9.7 km/h 19.3 km/h 17% 0 mm 83.0 W/m2 BKN
14:50 17.8 °C -7.6 °C 1010.7 hPa West 4.8 km/h 19.3 km/h 17% 0 mm 141.0 W/m2 BKN
14:54 17.9 °C -7.5 °C 1010.7 hPa WNW 9.7 km/h 20.9 km/h 17% 0 mm 232.0 W/m2 BKN
15:00 17.8 °C -7.6 °C 1010.7 hPa WSW 8 km/h 25.7 km/h 17% 0 mm 37.0 W/m2 BKN
15:10 17.6 °C -7.8 °C 1010.7 hPa West 4.8 km/h 24.1 km/h 17% 0 mm 376.0 W/m2 BKN
15:15 17.8 °C -6.9 °C 1010.4 hPa WSW 4.8 km/h 20.9 km/h 18% 0 mm 388.0 W/m2 BKN
15:20 17.8 °C -6.8 °C 1010.7 hPa West 4.8 km/h 19.3 km/h 18% 0 mm 51.0 W/m2 BKN
15:25 17.6 °C -6.3 °C 1010.7 hPa NW 4.8 km/h 19.3 km/h 19% 0 mm 214.0 W/m2 BKN
15:30 17.2 °C -6 °C 1010.4 hPa NNW 8 km/h 16.1 km/h 20% 0 mm 274.0 W/m2 BKN
15:35 17 °C -4.9 °C 1010.4 hPa NNW 4.8 km/h 12.9 km/h 22% 0 mm 225.0 W/m2 BKN
15:40 16.6 °C -4.7 °C 1010.4 hPa North 8 km/h 14.5 km/h 23% 0 mm 190.0 W/m2 BKN
15:45 16.3 °C -4.3 °C 1010.4 hPa North 3.2 km/h 11.3 km/h 24% 0 mm 232.0 W/m2 BKN
15:50 16.6 °C -7.1 °C 1010.4 hPa NW 4.8 km/h 14.5 km/h 19% 0 mm 186.0 W/m2 BKN
15:54 16.5 °C -5.3 °C 1010.4 hPa WNW 4.8 km/h 16.1 km/h 22% 0 mm 149.0 W/m2 BKN
15:59 16.2 °C -4.9 °C 1010.4 hPa NW 4.8 km/h 19.3 km/h 23% 0 mm 213.0 W/m2 BKN
16:10 16.6 °C -6.6 °C 1010.4 hPa WNW 4.8 km/h 19.3 km/h 20% 0 mm 155.0 W/m2 BKN
16:15 16.3 °C -6.1 °C 1010.4 hPa West 4.8 km/h 19.3 km/h 21% 0 mm 118.0 W/m2 BKN
16:20 16.1 °C -6.9 °C 1010.4 hPa West 4.8 km/h 12.9 km/h 20% 0 mm 134.0 W/m2 BKN
16:25 16.1 °C -6.3 °C 1010 hPa WNW 4.8 km/h 14.5 km/h 21% 0 mm 113.0 W/m2 BKN
16:30 15.8 °C -5.9 °C 1010 hPa WNW 1.6 km/h 8 km/h 22% 0 mm 113.0 W/m2 BKN
16:35 15.8 °C -6.5 °C 1010.4 hPa West 1.6 km/h 11.3 km/h 21% 0 mm 109.0 W/m2 BKN
16:40 15.8 °C -7.2 °C 1010 hPa NW 3.2 km/h 6.4 km/h 20% 0 mm 95.0 W/m2 BKN
16:45 15.7 °C -7.3 °C 1010 hPa West 3.2 km/h 19.3 km/h 20% 0 mm 58.0 W/m2 BKN
16:50 15.4 °C -7.4 °C 1010 hPa WSW 3.2 km/h 14.5 km/h 20% 0 mm 58.0 W/m2 BKN
17:00 14.8 °C -8 °C 1010.4 hPa WSW 3.2 km/h 22.5 km/h 20% 0 mm 25.0 W/m2 BKN
17:10 14.2 °C -7.9 °C 1010.4 hPa SW 1.6 km/h 19.3 km/h 21% 0 mm 21.0 W/m2 BKN
17:15 13.9 °C -8.1 °C 1010.4 hPa SW 3.2 km/h 19.3 km/h 21% 0 mm 19.0 W/m2 BKN
17:20 13.8 °C -7.6 °C 1010.4 hPa SW 4.8 km/h 14.5 km/h 22% 0 mm 14.0 W/m2 BKN
17:25 13.7 °C -7.7 °C 1010.7 hPa SW 4.8 km/h 19.3 km/h 22% 0 mm 9.0 W/m2 BKN
17:30 13.4 °C -7.3 °C 1010.4 hPa SW 3.2 km/h 9.7 km/h 23% 0 mm 5.0 W/m2 BKN
17:35 13.4 °C -7.9 °C 1010.4 hPa WSW 3.2 km/h 19.3 km/h 22% 0 mm 0.0 W/m2 BKN
17:40 13.4 °C -7.9 °C 1010.4 hPa SW 3.2 km/h 12.9 km/h 22% 0 mm 0.0 W/m2 BKN
17:49 12.8 °C -7.3 °C 1010.4 hPa Calm   6.4 km/h 24% 0 mm 0.0 W/m2 BKN
17:54 12.3 °C -7.7 °C 1010.4 hPa North 1.6 km/h 4.8 km/h 24% 0 mm 0.0 W/m2 BKN
17:59 11.7 °C -7.2 °C 1010.4 hPa Calm   4.8 km/h 26% 0 mm 0.0 W/m2 BKN
18:09 10.8 °C -6.6 °C 1010 hPa NNW 1.6 km/h 4.8 km/h 29% 0 mm 0.0 W/m2 BKN
18:15 10.7 °C -6.2 °C 1010.4 hPa NNW 3.2 km/h 9.7 km/h 30% 0 mm 0.0 W/m2 BKN
18:20 10.8 °C -6.6 °C 1010.4 hPa Calm   9.7 km/h 29% 0 mm 0.0 W/m2 BKN
18:25 10.7 °C -6.7 °C 1010.4 hPa Calm   1.6 km/h 29% 0 mm 0.0 W/m2 BKN
18:30 10.3 °C -6.6 °C 1010.4 hPa Calm     30% 0 mm 0.0 W/m2 BKN
18:35 9.9 °C -6.4 °C 1010.4 hPa Calm   1.6 km/h 31% 0 mm 0.0 W/m2 BKN
18:39 9.8 °C -6.6 °C 1010.4 hPa NW 1.6 km/h 3.2 km/h 31% 0 mm 0.0 W/m2 BKN
18:45 9.7 °C -6.2 °C 1010.4 hPa NW 1.6 km/h 4.8 km/h 32% 0 mm 0.0 W/m2 BKN
18:50 9.7 °C -6.3 °C 1010.4 hPa NNW 1.6 km/h 4.8 km/h 32% 0 mm 0.0 W/m2 BKN
18:55 9.8 °C -6.6 °C 1010.4 hPa Calm   6.4 km/h 31% 0 mm 0.0 W/m2 BKN
18:59 9.7 °C -6.3 °C 1010.4 hPa Calm   3.2 km/h 32% 0 mm 0.0 W/m2 BKN
19:10 9.1 °C -6.4 °C 1010.4 hPa Calm   3.2 km/h 33% 0 mm 0.0 W/m2 BKN
19:15 9.1 °C -6.4 °C 1010.4 hPa Calm   1.6 km/h 33% 0 mm 0.0 W/m2 BKN
19:19 8.8 °C -5.8 °C 1010.4 hPa NW 1.6 km/h 4.8 km/h 35% 0 mm 0.0 W/m2 BKN
19:24 8.9 °C -6.1 °C 1010.4 hPa Calm   4.8 km/h 34% 0 mm 0.0 W/m2 BKN
19:29 8.9 °C -6.2 °C 1010.4 hPa Calm   3.2 km/h 34% 0 mm 0.0 W/m2 BKN
19:34 8.4 °C -5.9 °C 1010.4 hPa Calm   1.6 km/h 36% 0 mm 0.0 W/m2 BKN
19:40 7.8 °C -6.3 °C 1010.4 hPa Calm   1.6 km/h 36% 0 mm 0.0 W/m2 BKN
19:45 7.7 °C -5.8 °C 1010.4 hPa Calm     38% 0 mm 0.0 W/m2 BKN
19:50 7.4 °C -6 °C 1010.4 hPa Calm     38% 0 mm 0.0 W/m2 BKN
19:55 7.3 °C -6.1 °C 1010.7 hPa Calm     38% 0 mm 0.0 W/m2 BKN
20:00 7.3 °C -6.1 °C 1010.7 hPa Calm     38% 0 mm 0.0 W/m2 BKN
20:10 7.2 °C -5.8 °C 1010.7 hPa Calm     39% 0 mm 0.0 W/m2 BKN
20:15 7.1 °C -5.9 °C 1010.7 hPa Calm     39% 0 mm 0.0 W/m2 BKN
20:20 7.1 °C -6 °C 1010.7 hPa Calm     39% 0 mm 0.0 W/m2 BKN
20:25 6.8 °C -6.2 °C 1010.7 hPa Calm     39% 0 mm 0.0 W/m2 BKN
20:30 6.4 °C -6.2 °C 1010.7 hPa Calm     40% 0 mm 0.0 W/m2 BKN
20:35 6.3 °C -6.1 °C 1010.7 hPa Calm     41% 0 mm 0.0 W/m2 BKN
20:40 6.2 °C -6.1 °C 1010.7 hPa Calm     41% 0 mm 0.0 W/m2 BKN
20:45 6.1 °C -6.2 °C 1011.1 hPa Calm     41% 0 mm 0.0 W/m2 BKN
20:50 6.1 °C -5.9 °C 1011.1 hPa Calm   1.6 km/h 42% 0 mm 0.0 W/m2 BKN
20:55 5.8 °C -5.8 °C 1011.1 hPa Calm   3.2 km/h 43% 0 mm 0.0 W/m2 BKN
21:00 5.8 °C -5.9 °C 1011.1 hPa Calm   1.6 km/h 43% 0 mm 0.0 W/m2 BKN
21:10 5.2 °C -5.8 °C 1010.7 hPa NW 1.6 km/h 3.2 km/h 45% 0 mm 0.0 W/m2 BKN
21:15 5.7 °C -5.6 °C 1010.7 hPa Calm   1.6 km/h 44% 0 mm 0.0 W/m2 FEW
21:20 5.6 °C -5.4 °C 1010.7 hPa Calm   1.6 km/h 45% 0 mm 0.0 W/m2 FEW
21:25 5.4 °C -5.6 °C 1011.1 hPa Calm     45% 0 mm 0.0 W/m2 FEW
21:30 5.2 °C -5.4 °C 1010.7 hPa Calm   1.6 km/h 46% 0 mm 0.0 W/m2 FEW
21:35 5.3 °C -5.4 °C 1011.1 hPa Calm     46% 0 mm 0.0 W/m2 FEW
21:40 5.2 °C -5.2 °C 1011.1 hPa Calm   1.6 km/h 47% 0 mm 0.0 W/m2 FEW
21:45 4.9 °C -5.4 °C 1011.1 hPa Calm   1.6 km/h 47% 0 mm 0.0 W/m2 FEW
21:50 4.9 °C -5.2 °C 1010.7 hPa Calm   1.6 km/h 48% 0 mm 0.0 W/m2 FEW
21:55 4.7 °C -5.4 °C 1011.1 hPa Calm     48% 0 mm 0.0 W/m2 BKN
21:59 4.4 °C -5.3 °C 1010.7 hPa Calm   1.6 km/h 49% 0 mm 0.0 W/m2 BKN
22:10 3.9 °C -5.3 °C 1010.7 hPa Calm   1.6 km/h 51% 0 mm 0.0 W/m2 BKN
22:15 3.9 °C -5.1 °C 1010.7 hPa Calm   1.6 km/h 52% 0 mm 0.0 W/m2 BKN
22:20 3.7 °C -5 °C 1010.7 hPa NW 1.6 km/h 1.6 km/h 53% 0 mm 0.0 W/m2 BKN
22:24 3.6 °C -5.2 °C 1010.7 hPa Calm   1.6 km/h 53% 0 mm 0.0 W/m2 CLR
22:30 3.6 °C -5.2 °C 1010.4 hPa Calm     53% 0 mm 0.0 W/m2 CLR
22:35 3.7 °C -5.1 °C 1010.4 hPa Calm   1.6 km/h 53% 0 mm 0.0 W/m2 CLR
22:40 3.6 °C -5.1 °C 1010.4 hPa Calm     53% 0 mm 0.0 W/m2 CLR
22:45 3.4 °C -5 °C 1010.7 hPa Calm   1.6 km/h 54% 0 mm 0.0 W/m2 CLR
22:50 3.7 °C -4.6 °C 1010.4 hPa Calm     55% 0 mm 0.0 W/m2 CLR
22:55 4 °C -4.3 °C 1010.7 hPa WNW 1.6 km/h 3.2 km/h 55% 0 mm 0.0 W/m2 CLR
23:00 5.6 °C -3.8 °C 1010.7 hPa Calm   3.2 km/h 51% 0 mm 0.0 W/m2 CLR
23:09 6.9 °C -3.9 °C 1010.7 hPa WSW 1.6 km/h 6.4 km/h 46% 0 mm 0.0 W/m2 SCT
23:14 7.4 °C -3.8 °C 1010.7 hPa Calm   8 km/h 45% 0 mm 0.0 W/m2 SCT
23:20 7.3 °C -3.8 °C 1010.7 hPa SW 1.6 km/h 9.7 km/h 45% 0 mm 0.0 W/m2 SCT
23:25 7.3 °C -3.9 °C 1010.4 hPa SSW 1.6 km/h 6.4 km/h 45% 0 mm 0.0 W/m2 SCT
23:30 7.3 °C -3.9 °C 1010.4 hPa SSW 1.6 km/h 6.4 km/h 45% 0 mm 0.0 W/m2 SCT
23:35 7.3 °C -4.1 °C 1010 hPa SSW 1.6 km/h 6.4 km/h 44% 0 mm 0.0 W/m2 SCT
23:39 7.5 °C -4 °C 1010.4 hPa SSW 1.6 km/h 6.4 km/h 44% 0 mm 0.0 W/m2 SCT
23:45 7.6 °C -4.2 °C 1010 hPa SW 1.6 km/h 6.4 km/h 43% 0 mm 0.0 W/m2 SCT
23:50 7.4 °C -4 °C 1010.4 hPa Calm   3.2 km/h 44% 0 mm 0.0 W/m2 SCT
23:55 7.3 °C -4.2 °C 1010.4 hPa WSW 1.6 km/h 6.4 km/h 44% 0 mm 0.0 W/m2 SCT
23:59 7.2 °C -4.2 °C 1010.4 hPa SW 3.2 km/h 9.7 km/h 44% 0 mm 0.0 W/m2 SCT
Broomfield, Colorado USA
Compliments of Weather Underground - 4 mb